• Join FlightAware (Why Join?)
  • Login
  • US Flag 
04:11PM EST


 

Airport Tracker/Info


-or-


 

Live Flight TrackerFlight Track Log ✈ SWA2280 ✈ 27-Apr-2013 ✈ KDAL - KSAT

Flight Track Log - Related Links

Times and Time Zones

All times are in EDT time to prevent confusion due to time zone crossing. See the SWA2280 flight status page for this flight to view local times or setup timezone preferences in your user account.

Time Position Orientation Groundspeed Altitude Reporting Facility
EDT Latitude Longitude Course Direction KTS MPH feet Rate Location/Type
07:51PM 32.9000 -96.9167 308° West 201 231 4,600  Level Dallas / Fort Worth TRACON
07:52PM 32.8833 -96.9833 253° West 256 295 7,700 3,240 Climbing Dallas / Fort Worth TRACON
07:55PM 32.6950 -97.0111 187° South 329 379 15,100 3,120 Climbing Fort Worth Center
07:56PM 32.4748 -97.0398 189° South  Level Estimated
07:56PM 32.5969 -97.0239 186° South 361 415 17,800  Level Fort Worth Center
07:57PM 32.5008 -97.0342 185° South 383 441 20,700 3,060 Climbing Fort Worth Center
07:58PM 32.3819 -97.0492 186° South 389 448 24,000 3,180 Climbing Fort Worth Center
07:59PM 32.2756 -97.0594 185° South 389 448 27,100 1,980 Climbing Fort Worth Center
08:00PM 32.1669 -97.0647 182° South 384 442 28,000 420 Climbing Fort Worth Center
08:01PM 32.0583 -97.0678 181° South 389 448 28,000  Level Fort Worth Center
08:02PM 31.9581 -97.0681 180° South 397 457 28,000  Level Fort Worth Center
08:03PM 31.8350 -97.0733 182° South 402 463 28,000  Level Fort Worth Center
08:04PM 31.7244 -97.0764 181° South 402 463 28,000  Level Fort Worth Center
08:05PM 31.5258 -97.0856 182° South 396 456 28,000  Level Houston Center
08:06PM 31.4214 -97.1267 199° South 390 449 28,000  Level Houston Center
08:07PM 31.3169 -97.1664 198° South 389 448 28,000  Level Houston Center
08:08PM 31.2128 -97.2078 199° South 391 450 28,000  Level Houston Center
08:09PM 31.1078 -97.2489 199° South 394 453 28,000  Level Houston Center
08:11PM 31.0039 -97.2900 199° South 395 455 28,000  Level Houston Center
08:12PM 30.8950 -97.3300 197° South 401 461 28,000  Level Houston Center
08:13PM 30.7950 -97.3692 199° South 400 460 28,000  Level Houston Center
08:14PM 30.6906 -97.4094 198° South 394 453 28,000 -300 Level Houston Center
08:15PM 30.5700 -97.4567 199° South 390 449 27,400 -1,200 Descending Houston Center
08:16PM 30.4778 -97.4922 198° South 351 404 25,600 -1,800 Descending Houston Center
08:17PM 30.3842 -97.5294 199° South 352 405 23,800 -1,860 Descending Houston Center
08:18PM 30.2972 -97.5881 210° Southwest 353 406 21,900 -1,800 Descending Houston Center
08:18PM 30.2414 -97.6244 209° Southwest 346 398 20,600 -1,920 Descending Houston Center
08:19PM 30.1825 -97.6683 213° Southwest 334 384 19,300 -1,800 Descending Houston Center
08:20PM 30.1367 -97.6975 209° Southwest 327 376 18,400 -1,680 Descending Houston Center
08:20PM 30.1036 -97.7197 210° Southwest 317 365 17,600 -1,800 Descending Houston Center
08:21PM 30.0597 -97.7500 211° Southwest 306 352 16,600 -1,620 Descending Houston Center
08:21PM 30.0328 -97.7697 212° Southwest 303 349 16,000 -1,680 Descending Houston Center
08:22PM 29.9875 -97.8003 210° Southwest 301 346 14,900 -1,740 Descending Houston Center
08:22PM 29.9597 -97.8178 209° Southwest 297 342 14,300 -1,680 Descending Houston Center
08:23PM 29.9119 -97.8517 212° Southwest 293 337 13,200 -1,200 Descending Houston Center
08:23PM 29.8919 -97.8769 228° Southwest 289 333 13,000 -240 Descending Houston Center
08:24PM 29.8692 -97.9283 243° Southwest 294 338 13,000  Level Houston Center
08:24PM 29.8556 -97.9586 243° Southwest 288 331 13,000 -1,020 Level Houston Center
08:25PM 29.8344 -98.0108 245° Southwest 290 334 12,000 -1,920 Descending Houston Center
08:25PM 29.8181 -98.0503 244° Southwest 295 339 11,100 -1,800 Descending Houston Center
08:26PM 29.7983 -98.0964 244° Southwest 296 341 10,200 -1,500 Descending Houston Center
08:26PM 29.7819 -98.1364 245° Southwest 301 346 9,600 -1,380 Descending Houston Center
08:27PM 29.7600 -98.1872 244° Southwest 294 338 8,800 -1,440 Descending Houston Center
08:27PM 29.7478 -98.2178 245° Southwest 286 329 8,200 -1,620 Descending Houston Center
08:28PM 29.7256 -98.2678 243° Southwest 282 325 7,200 -1,560 Descending Houston Center
08:28PM 29.7150 -98.2939 245° Southwest 279 321 6,800 -1,500 Descending Houston Center
08:29PM 29.6914 -98.3483 243° Southwest 281 323 5,700 -1,500 Descending Houston Center
08:29PM 29.6822 -98.3725 246° West 282 325 5,300 -1,500 Descending Houston Center
08:30PM 29.6594 -98.4303 246° West 283 326 4,200 -1,320 Descending Houston Center
08:30PM 29.6500 -98.4558 247° West 283 326 4,000 -240 Descending Houston Center
08:31PM 29.6256 -98.5011 238° Southwest 220 253 4,000 -240 Level Houston Center
08:31PM 29.6194 -98.5122 238° Southwest 181 208 3,800 -1,380 Descending Houston Center
08:32PM 29.5939 -98.5375 221° Southwest 171 197 2,600 -1,620 Descending Houston Center
08:32PM 29.5819 -98.5361 174° South 144 166 2,200 -1,200 Descending Houston Center
08:33PM 29.5639 -98.5114 130° Southeast 140 161 1,400 -1,020 Descending Houston Center
08:33PM 29.5558 -98.5031 138° Southeast 128 147 1,200 -600 Descending Houston Center
08:34PM 29.5408 -98.4811 128° Southeast 130 150 800 -540 Descending Houston Center
08:36PM 29.5340 -98.4691 221° Southwest  Level Estimated
08:43PM 29.5333 -98.4667 16° North  Level FlightAware Approximate